Time;durP1;ratioP1;P1;durP2;ratioP2;P2;SDS_P1;SDS_P2;PMS_P1;PMS_P2;Temp;Humidity;BMP_temperature;BMP_pressure;BME280_temperature;BME280_humidity;BME280_pressure;Samples;Min_cycle;Max_cycle;Signal;HPM_P1;HPM_P2
2021/08/24 00:01:47;;;;;;;0.50;0.40;;;14.30;99.90;;;;;;5062128;28;20441;-84
2021/08/24 00:04:14;;;;;;;0.50;0.40;;;14.30;99.90;;;;;;5061830;28;20447;-84
2021/08/24 00:06:41;;;;;;;0.50;0.40;;;14.20;99.90;;;;;;5062038;28;20838;-84
2021/08/24 00:09:07;;;;;;;0.50;0.40;;;14.20;99.90;;;;;;5061650;28;20441;-84
2021/08/24 00:11:34;;;;;;;0.50;0.40;;;14.20;99.90;;;;;;5062171;28;20442;-83
2021/08/24 00:14:01;;;;;;;0.50;0.40;;;14.20;99.90;;;;;;5061951;28;20437;-84
2021/08/24 00:16:30;;;;;;;0.50;0.40;;;14.30;99.90;;;;;;5062458;28;20476;-84
2021/08/24 00:19:22;;;;;;;0.50;0.40;;;14.30;99.90;;;;;;5061982;28;20446;-83
2021/08/24 00:21:48;;;;;;;0.50;0.40;;;14.30;99.90;;;;;;5062340;28;20468;-84
2021/08/24 00:24:16;;;;;;;0.50;0.40;;;14.20;99.90;;;;;;5061258;28;20485;-84
2021/08/24 00:26:42;;;;;;;0.50;0.40;;;14.20;99.90;;;;;;5061965;28;20535;-84
2021/08/24 00:29:09;;;;;;;0.50;0.40;;;14.10;99.90;;;;;;5061751;28;20433;-84
2021/08/24 00:31:38;;;;;;;0.50;0.40;;;14.10;99.90;;;;;;5063562;28;20445;-83
2021/08/24 00:34:05;;;;;;;0.50;0.40;;;14.10;99.90;;;;;;5062591;28;20452;-83
2021/08/24 00:36:32;;;;;;;0.50;0.40;;;14.00;99.90;;;;;;5066302;28;20465;-83
2021/08/24 00:38:59;;;;;;;0.50;0.40;;;14.00;99.90;;;;;;5068133;28;20425;-83
2021/08/24 00:41:27;;;;;;;0.50;0.40;;;14.10;99.90;;;;;;5067602;28;20445;-82
2021/08/24 00:43:54;;;;;;;0.50;0.40;;;14.10;99.90;;;;;;5066788;28;20501;-83
2021/08/24 00:46:33;;;;;;;0.50;0.40;;;14.00;99.90;;;;;;5068681;28;20465;-83
2021/08/24 00:49:05;;;;;;;0.50;0.40;;;14.00;99.90;;;;;;5069018;28;20891;-83
2021/08/24 00:51:37;;;;;;;0.50;0.40;;;14.00;99.90;;;;;;5067086;28;20425;-79
2021/08/24 00:54:06;;;;;;;0.50;0.30;;;14.00;99.90;;;;;;5068779;28;20443;-83
2021/08/24 00:56:33;;;;;;;0.50;0.40;;;14.00;99.90;;;;;;5067351;28;20465;-83
2021/08/24 00:59:00;;;;;;;0.50;0.40;;;14.00;99.90;;;;;;5068008;28;20525;-83
2021/08/24 01:01:27;;;;;;;0.50;0.40;;;14.10;99.90;;;;;;5067223;28;20527;-83
2021/08/24 01:03:54;;;;;;;0.50;0.40;;;14.10;99.90;;;;;;5066849;28;20437;-83
2021/08/24 01:06:37;;;;;;;0.50;0.40;;;14.00;99.90;;;;;;5066753;28;20466;-83
2021/08/24 01:09:16;;;;;;;0.50;0.40;;;14.00;99.90;;;;;;5066516;28;20445;-83
2021/08/24 01:11:51;;;;;;;0.50;0.40;;;13.90;99.90;;;;;;5066053;28;20425;-83
2021/08/24 01:14:29;;;;;;;0.50;0.40;;;13.80;99.90;;;;;;5065635;28;20439;-84
2021/08/24 01:17:01;;;;;;;0.50;0.40;;;13.80;99.90;;;;;;5067003;28;20431;-83
2021/08/24 01:19:55;;;;;;;0.50;0.40;;;13.70;99.90;;;;;;5064941;28;20437;-79
2021/08/24 01:22:57;;;;;;;0.50;0.40;;;13.60;99.90;;;;;;5064558;28;20444;-83
2021/08/24 01:25:32;;;;;;;0.50;0.40;;;13.50;99.90;;;;;;5063323;28;20535;-80
2021/08/24 01:28:04;;;;;;;0.80;0.80;;;13.50;99.90;;;;;;5065420;28;20429;-83
2021/08/24 01:30:54;;;;;;;0.50;0.40;;;13.60;99.90;;;;;;5063912;28;20191;-82
2021/08/24 01:33:28;;;;;;;1.23;1.10;;;13.50;99.90;;;;;;5061866;28;20965;-84
2021/08/24 01:36:19;;;;;;;0.50;0.40;;;13.50;99.90;;;;;;5058607;28;20512;-84
2021/08/24 01:38:58;;;;;;;0.50;0.40;;;13.50;99.90;;;;;;5058404;28;20420;-83
2021/08/24 01:41:32;;;;;;;0.50;0.40;;;13.40;99.90;;;;;;5057201;28;20484;-83
2021/08/24 01:44:04;;;;;;;0.50;0.40;;;13.40;99.90;;;;;;5058631;28;20440;-83
2021/08/24 01:46:42;;;;;;;0.50;0.40;;;13.40;99.90;;;;;;5058415;28;20453;-83
2021/08/24 01:49:09;;;;;;;0.50;0.40;;;13.30;99.90;;;;;;5057524;28;20496;-83
2021/08/24 01:51:43;;;;;;;0.50;0.38;;;13.20;99.90;;;;;;5056610;28;20440;-84
2021/08/24 01:54:15;;;;;;;0.50;0.40;;;13.20;99.90;;;;;;5057513;28;20190;-83
2021/08/24 01:56:45;;;;;;;0.50;0.40;;;13.10;99.90;;;;;;5056990;28;20457;-84
2021/08/24 01:59:16;;;;;;;0.50;0.40;;;13.00;99.90;;;;;;5057026;28;20447;-83
2021/08/24 02:01:47;;;;;;;0.50;0.40;;;13.00;99.90;;;;;;5056711;28;20199;-83
2021/08/24 02:04:18;;;;;;;0.50;0.40;;;13.00;99.90;;;;;;5057627;28;20807;-83
2021/08/24 02:06:48;;;;;;;0.50;0.40;;;12.90;99.90;;;;;;5056887;28;20465;-83
2021/08/24 02:09:20;;;;;;;0.50;0.40;;;12.90;99.90;;;;;;5057085;28;20447;-83
2021/08/24 02:11:47;;;;;;;0.50;0.40;;;12.80;99.90;;;;;;5057047;28;20440;-84
2021/08/24 02:14:16;;;;;;;0.50;0.40;;;12.80;99.90;;;;;;5056700;28;20441;-83
2021/08/24 02:16:45;;;;;;;0.50;0.40;;;12.80;99.90;;;;;;5056850;28;20265;-84
2021/08/24 02:19:17;;;;;;;0.50;0.40;;;12.80;99.90;;;;;;5057301;28;20450;-83
2021/08/24 02:21:48;;;;;;;0.50;0.40;;;12.80;99.90;;;;;;5056740;28;20465;-83
2021/08/24 02:24:21;;;;;;;0.50;0.40;;;12.80;99.90;;;;;;5056338;28;20461;-83
2021/08/24 02:26:50;;;;;;;0.50;0.40;;;12.70;99.90;;;;;;5056249;28;20449;-83
2021/08/24 02:29:17;;;;;;;0.50;0.40;;;12.70;99.90;;;;;;5056285;28;20468;-83
2021/08/24 02:31:49;;;;;;;0.50;0.40;;;12.60;99.90;;;;;;5056638;28;20565;-83
2021/08/24 02:34:24;;;;;;;0.50;0.38;;;12.60;99.90;;;;;;5056775;28;20448;-81
2021/08/24 02:36:58;;;;;;;0.50;0.40;;;12.60;99.90;;;;;;5056357;28;20185;-84
2021/08/24 02:39:31;;;;;;;0.50;0.40;;;12.60;99.90;;;;;;5054863;28;20864;-84
2021/08/24 02:42:05;;;;;;;0.50;0.40;;;12.60;99.90;;;;;;5054833;28;21008;-84
2021/08/24 02:44:39;;;;;;;0.50;0.40;;;12.50;99.90;;;;;;5055652;28;20438;-85
2021/08/24 02:47:07;;;;;;;0.50;0.40;;;12.50;99.90;;;;;;5055908;28;20441;-84
2021/08/24 02:49:35;;;;;;;0.50;0.40;;;12.50;99.90;;;;;;5055628;28;20201;-82
2021/08/24 02:52:08;;;;;;;0.50;0.40;;;12.40;99.90;;;;;;5054821;28;20927;-83
2021/08/24 02:54:36;;;;;;;0.50;0.40;;;12.40;99.90;;;;;;5055700;28;20903;-83
2021/08/24 02:57:05;;;;;;;0.50;0.40;;;12.40;99.90;;;;;;5055024;28;20205;-84
2021/08/24 02:59:33;;;;;;;0.50;0.40;;;12.40;99.90;;;;;;5055241;28;20205;-83
2021/08/24 03:02:02;;;;;;;0.50;0.40;;;12.40;99.90;;;;;;5054705;28;20215;-83
2021/08/24 03:04:29;;;;;;;0.50;0.40;;;12.30;99.90;;;;;;5054366;28;20195;-81
2021/08/24 03:07:00;;;;;;;0.50;0.40;;;12.20;99.90;;;;;;5054833;28;20630;-83
2021/08/24 03:09:32;;;;;;;0.50;0.40;;;12.20;99.90;;;;;;5055287;28;20274;-84
2021/08/24 03:12:07;;;;;;;0.50;0.40;;;12.20;99.90;;;;;;5054843;28;20426;-83
2021/08/24 03:14:51;;;;;;;0.50;0.40;;;12.10;99.90;;;;;;5054320;28;20447;-82
2021/08/24 03:17:25;;;;;;;0.50;0.40;;;12.10;99.90;;;;;;5054705;28;20195;-82
2021/08/24 03:19:55;;;;;;;0.50;0.40;;;12.10;99.90;;;;;;5054881;28;20453;-83
2021/08/24 03:22:22;;;;;;;0.50;0.40;;;12.10;99.90;;;;;;5066920;28;20233;-83
2021/08/24 03:24:51;;;;;;;0.50;0.40;;;12.10;99.90;;;;;;5056697;28;20217;-83
2021/08/24 03:27:18;;;;;;;0.50;0.40;;;12.00;99.90;;;;;;5058128;28;20456;-83
2021/08/24 03:29:58;;;;;;;0.50;0.40;;;12.00;99.90;;;;;;5057870;28;20451;-83
2021/08/24 03:32:25;;;;;;;0.50;0.40;;;12.00;99.90;;;;;;5057777;28;20229;-83
2021/08/24 03:34:52;;;;;;;0.50;0.40;;;12.00;99.90;;;;;;5057258;28;20216;-83
2021/08/24 03:37:19;;;;;;;0.50;0.40;;;12.00;99.90;;;;;;5057521;28;20570;-83
2021/08/24 03:39:46;;;;;;;0.50;0.40;;;12.00;99.90;;;;;;5072178;22;20229;-82
2021/08/24 03:42:14;;;;;;;0.50;0.40;;;12.00;99.90;;;;;;5051045;28;20485;-80
2021/08/24 03:44:43;;;;;;;0.50;0.40;;;11.90;99.90;;;;;;5056228;28;20456;-81
2021/08/24 03:47:10;;;;;;;0.50;0.40;;;11.90;99.90;;;;;;5059394;28;20622;-81
2021/08/24 03:49:36;;;;;;;0.50;0.40;;;11.80;99.90;;;;;;5059014;28;20567;-81
2021/08/24 03:52:04;;;;;;;0.50;0.40;;;11.80;99.90;;;;;;5059271;28;20200;-81
2021/08/24 03:54:31;;;;;;;0.50;0.40;;;11.80;99.90;;;;;;5059003;28;20202;-80
2021/08/24 03:56:58;;;;;;;0.50;0.40;;;11.80;99.90;;;;;;5058848;28;20443;-80
2021/08/24 03:59:26;;;;;;;0.50;0.40;;;11.80;99.90;;;;;;5059480;28;20459;-82
2021/08/24 04:01:53;;;;;;;0.50;0.40;;;11.80;99.90;;;;;;5058551;28;20222;-81
2021/08/24 04:04:20;;;;;;;0.50;0.40;;;11.70;99.90;;;;;;5059134;28;20199;-80
2021/08/24 04:06:46;;;;;;;0.50;0.40;;;11.70;99.90;;;;;;5059010;28;20280;-79
2021/08/24 04:09:13;;;;;;;0.60;0.50;;;11.80;99.90;;;;;;5059145;28;20623;-81
2021/08/24 04:11:40;;;;;;;0.50;0.40;;;11.80;99.90;;;;;;5059388;28;20208;-81
2021/08/24 04:14:07;;;;;;;0.80;0.80;;;11.70;99.90;;;;;;5058946;28;20682;-80
2021/08/24 04:16:35;;;;;;;0.50;0.40;;;11.80;99.90;;;;;;5059919;28;20196;-82
2021/08/24 04:19:01;;;;;;;0.50;0.40;;;11.80;99.90;;;;;;5058210;28;20206;-81
2021/08/24 04:21:28;;;;;;;0.50;0.40;;;11.80;99.90;;;;;;5060767;28;20694;-80
2021/08/24 04:23:55;;;;;;;0.50;0.40;;;11.80;99.90;;;;;;5061034;28;20196;-81
2021/08/24 04:26:22;;;;;;;0.50;0.40;;;11.90;99.90;;;;;;5060438;28;20201;-82
2021/08/24 04:28:49;;;;;;;0.50;0.40;;;11.80;99.90;;;;;;5053927;28;20197;-81
2021/08/24 04:31:18;;;;;;;0.50;0.40;;;11.70;99.90;;;;;;5060234;28;20208;-80
2021/08/24 04:33:46;;;;;;;0.50;0.40;;;11.70;99.90;;;;;;5060980;28;20203;-81
2021/08/24 04:36:13;;;;;;;0.50;0.40;;;11.70;99.90;;;;;;5059966;28;20208;-81
2021/08/24 04:38:40;;;;;;;0.50;0.40;;;11.70;99.90;;;;;;5052542;28;20201;-80
2021/08/24 04:41:07;;;;;;;0.50;0.40;;;11.70;99.90;;;;;;5060637;28;20211;-81
2021/08/24 04:43:34;;;;;;;0.50;0.40;;;11.70;99.90;;;;;;5060591;28;20193;-81
2021/08/24 04:46:01;;;;;;;0.50;0.40;;;11.70;99.90;;;;;;5060828;28;20212;-81
2021/08/24 04:48:28;;;;;;;0.50;0.40;;;11.70;99.90;;;;;;5061022;28;20202;-83
2021/08/24 04:50:56;;;;;;;0.50;0.40;;;11.70;99.90;;;;;;5061297;28;20232;-80
2021/08/24 04:53:24;;;;;;;0.50;0.40;;;11.70;99.90;;;;;;5061944;28;20215;-80
2021/08/24 04:55:51;;;;;;;0.50;0.40;;;11.70;99.90;;;;;;5062134;28;20576;-81
2021/08/24 04:58:18;;;;;;;0.50;0.40;;;11.70;99.90;;;;;;5060103;28;20191;-79
2021/08/24 05:00:45;;;;;;;0.50;0.40;;;11.80;99.90;;;;;;5060264;28;20216;-82
2021/08/24 05:03:12;;;;;;;0.50;0.40;;;11.90;99.90;;;;;;5060630;28;20205;-81
2021/08/24 05:05:39;;;;;;;0.50;0.40;;;12.00;99.90;;;;;;5060383;28;20196;-80
2021/08/24 05:08:07;;;;;;;0.50;0.40;;;12.00;99.90;;;;;;5061494;28;20195;-80
2021/08/24 05:10:34;;;;;;;0.50;0.40;;;12.10;99.90;;;;;;5061905;28;20210;-82
2021/08/24 05:13:02;;;;;;;0.50;0.40;;;12.10;99.90;;;;;;5062481;28;20259;-81
2021/08/24 05:15:29;;;;;;;0.50;0.40;;;12.20;99.90;;;;;;5061816;28;20227;-80
2021/08/24 05:17:56;;;;;;;0.50;0.40;;;12.30;99.90;;;;;;5061608;28;20221;-81
2021/08/24 05:20:23;;;;;;;0.50;0.40;;;12.40;99.90;;;;;;5060861;28;20248;-80
2021/08/24 05:22:50;;;;;;;0.50;0.40;;;12.50;99.90;;;;;;5061066;28;20191;-81
2021/08/24 05:25:21;;;;;;;0.50;0.40;;;12.60;99.90;;;;;;5060991;28;20201;-80
2021/08/24 05:27:49;;;;;;;0.50;0.40;;;12.60;99.90;;;;;;5059847;28;20180;-81
2021/08/24 05:30:20;;;;;;;0.50;0.40;;;12.60;99.90;;;;;;5060544;28;20453;-80
2021/08/24 05:32:47;;;;;;;0.50;0.40;;;12.70;99.90;;;;;;5065190;28;20194;-82
2021/08/24 05:35:14;;;;;;;0.50;0.40;;;12.80;99.90;;;;;;5061627;28;20677;-82
2021/08/24 05:37:41;;;;;;;0.50;0.40;;;12.90;99.90;;;;;;5062310;28;20195;-81
2021/08/24 05:40:09;;;;;;;0.60;0.40;;;13.10;99.90;;;;;;5059040;28;20226;-79
2021/08/24 05:42:38;;;;;;;0.50;0.40;;;13.30;99.90;;;;;;5059954;28;20225;-82
2021/08/24 05:45:06;;;;;;;0.50;0.40;;;13.50;99.90;;;;;;5060729;28;20198;-84
2021/08/24 05:47:33;;;;;;;0.50;0.40;;;13.70;99.90;;;;;;5058994;28;20314;-81
2021/08/24 05:50:00;;;;;;;0.50;0.40;;;13.90;99.90;;;;;;5059334;28;20230;-81
2021/08/24 05:52:27;;;;;;;0.50;0.40;;;14.20;99.90;;;;;;5057936;28;20434;-79
2021/08/24 05:54:54;;;;;;;0.50;0.30;;;15.00;99.90;;;;;;5059214;28;20815;-81
2021/08/24 05:57:21;;;;;;;0.50;0.40;;;16.10;99.90;;;;;;5059754;28;20823;-81
2021/08/24 05:59:50;;;;;;;0.50;0.40;;;16.80;99.90;;;;;;5059234;28;20458;-81
2021/08/24 06:02:16;;;;;;;0.50;0.30;;;17.00;99.90;;;;;;5058137;28;20473;-80
2021/08/24 06:04:43;;;;;;;0.50;0.40;;;16.80;99.90;;;;;;5058912;28;20445;-81
2021/08/24 06:07:11;;;;;;;0.50;0.40;;;16.60;99.90;;;;;;5058770;28;20441;-81
2021/08/24 06:09:38;;;;;;;0.50;0.37;;;17.20;99.90;;;;;;5058804;28;20457;-81
2021/08/24 06:12:05;;;;;;;0.50;0.30;;;18.40;99.90;;;;;;5059045;28;20945;-81
2021/08/24 06:14:32;;;;;;;0.50;0.30;;;19.70;99.90;;;;;;5059735;28;20440;-81
2021/08/24 06:17:00;;;;;;;0.50;0.40;;;21.10;99.90;;;;;;5060342;28;20699;-82
2021/08/24 06:19:29;;;;;;;0.50;0.43;;;22.50;99.90;;;;;;5060806;28;20448;-82
2021/08/24 06:21:58;;;;;;;0.50;0.40;;;23.30;99.90;;;;;;5058254;28;20474;-82
2021/08/24 06:24:25;;;;;;;0.50;0.40;;;23.40;99.90;;;;;;5059890;28;20445;-82
2021/08/24 06:26:52;;;;;;;0.50;0.30;;;24.20;99.90;;;;;;5059096;28;20958;-82
2021/08/24 06:29:19;;;;;;;0.50;0.30;;;25.10;99.90;;;;;;5059135;28;20522;-82
2021/08/24 06:31:49;;;;;;;0.50;0.40;;;25.90;99.90;;;;;;5057697;28;20943;-82
2021/08/24 06:34:18;;;;;;;0.50;0.30;;;26.10;99.90;;;;;;5057230;28;20442;-82
2021/08/24 06:36:45;;;;;;;0.50;0.30;;;26.60;99.90;;;;;;5058053;28;20452;-82
2021/08/24 06:39:13;;;;;;;0.50;0.30;;;26.60;94.70;;;;;;5059205;28;20446;-82
2021/08/24 06:41:42;;;;;;;0.50;0.30;;;26.60;95.80;;;;;;5057904;28;20481;-82
2021/08/24 06:44:11;;;;;;;0.50;0.30;;;26.80;96.60;;;;;;5058517;28;20438;-82
2021/08/24 06:46:37;;;;;;;0.50;0.30;;;26.90;96.40;;;;;;5058836;28;20807;-82
2021/08/24 06:49:04;;;;;;;0.50;0.30;;;27.70;95.50;;;;;;5057614;28;20442;-83
2021/08/24 06:51:33;;;;;;;0.50;0.30;;;28.30;90.90;;;;;;5057718;28;20451;-82
2021/08/24 06:54:02;;;;;;;2.40;1.60;;;28.50;90.20;;;;;;5057214;28;20438;-83
2021/08/24 06:56:29;;;;;;;0.50;0.30;;;29.30;85.50;;;;;;5058359;28;20440;-83
2021/08/24 06:58:55;;;;;;;0.50;0.30;;;29.70;80.30;;;;;;5056113;28;20444;-83
2021/08/24 07:01:25;;;;;;;0.50;0.30;;;29.90;78.40;;;;;;5061247;28;20482;-82
2021/08/24 07:03:54;;;;;;;0.50;0.30;;;30.30;78.40;;;;;;5062547;28;20477;-83
2021/08/24 07:06:21;;;;;;;0.50;0.30;;;30.70;73.50;;;;;;5061943;28;20451;-81
2021/08/24 07:08:53;;;;;;;0.50;0.30;;;31.00;72.80;;;;;;5061716;28;20440;-82
2021/08/24 07:11:20;;;;;;;0.50;0.30;;;31.40;69.30;;;;;;5062012;28;20460;-84
2021/08/24 07:13:50;;;;;;;0.50;0.30;;;31.50;68.10;;;;;;5061673;28;20445;-81
2021/08/24 07:16:17;;;;;;;0.50;0.30;;;31.80;67.80;;;;;;5061692;28;20447;-81
2021/08/24 07:18:44;;;;;;;0.50;0.30;;;32.20;65.40;;;;;;5061842;28;20444;-81
2021/08/24 07:21:15;;;;;;;0.50;0.30;;;32.50;65.90;;;;;;5061557;28;20828;-81
2021/08/24 07:23:42;;;;;;;0.50;0.30;;;33.00;64.80;;;;;;5060320;28;20444;-81
2021/08/24 07:26:10;;;;;;;0.50;0.30;;;33.30;62.50;;;;;;5059394;28;20440;-81
2021/08/24 07:28:37;;;;;;;0.50;0.30;;;33.70;60.90;;;;;;5057860;28;20445;-80
2021/08/24 07:31:04;;;;;;;0.50;0.30;;;33.70;59.30;;;;;;5059169;28;20463;-82
2021/08/24 07:33:30;;;;;;;0.50;0.30;;;34.20;59.50;;;;;;5058945;28;20465;-82
2021/08/24 07:35:57;;;;;;;0.50;0.30;;;33.90;57.90;;;;;;5059077;28;20814;-80
2021/08/24 07:38:25;;;;;;;0.50;0.30;;;34.30;56.70;;;;;;5059128;28;20444;-81
2021/08/24 07:40:53;;;;;;;0.50;0.50;;;34.20;57.10;;;;;;5057719;28;20462;-81
2021/08/24 07:43:21;;;;;;;1.13;0.90;;;34.40;56.80;;;;;;5058269;28;20936;-79
2021/08/24 07:45:49;;;;;;;0.50;0.30;;;34.50;57.40;;;;;;5058073;28;20445;-82
2021/08/24 07:48:16;;;;;;;0.50;0.30;;;34.50;56.80;;;;;;5056044;28;20434;-81
2021/08/24 07:50:43;;;;;;;0.50;0.30;;;35.00;57.20;;;;;;5057275;28;20454;-83
2021/08/24 07:53:11;;;;;;;0.50;0.30;;;35.20;54.90;;;;;;5047643;28;20486;-82
2021/08/24 07:55:38;;;;;;;0.50;0.30;;;35.80;54.60;;;;;;5045544;28;20442;-83
2021/08/24 07:58:05;;;;;;;0.40;0.30;;;36.10;54.10;;;;;;5039886;28;20439;-82
2021/08/24 08:00:33;;;;;;;0.40;0.30;;;36.60;53.30;;;;;;5038608;28;20469;-82
2021/08/24 08:03:00;;;;;;;0.47;0.30;;;35.60;51.50;;;;;;5038864;28;20442;-81
2021/08/24 08:05:26;;;;;;;0.50;0.30;;;35.80;54.50;;;;;;5038888;28;20446;-83
2021/08/24 08:07:55;;;;;;;0.47;0.30;;;36.40;53.00;;;;;;5041192;28;20492;-81
2021/08/24 08:10:22;;;;;;;0.43;0.30;;;37.10;51.60;;;;;;5056735;28;20654;-82
2021/08/24 08:12:49;;;;;;;0.40;0.30;;;37.30;50.10;;;;;;5057967;28;20590;-82
2021/08/24 08:15:16;;;;;;;0.40;0.30;;;37.30;49.70;;;;;;5058252;28;20447;-82
2021/08/24 08:17:45;;;;;;;0.40;0.30;;;37.60;50.40;;;;;;5058694;28;20442;-83
2021/08/24 08:20:13;;;;;;;0.40;0.30;;;38.30;49.40;;;;;;5058710;28;20822;-82
2021/08/24 08:22:42;;;;;;;0.40;0.30;;;37.70;48.50;;;;;;5059096;28;20810;-82
2021/08/24 08:25:10;;;;;;;0.40;0.30;;;38.20;48.30;;;;;;5058307;28;20534;-82
2021/08/24 08:27:37;;;;;;;0.40;0.30;;;38.40;45.50;;;;;;5057499;28;20439;-81
2021/08/24 08:30:08;;;;;;;0.40;0.30;;;38.80;45.50;;;;;;5055673;28;20464;-82
2021/08/24 08:32:39;;;;;;;0.40;0.30;;;37.70;45.70;;;;;;5053295;28;20508;-81
2021/08/24 08:35:08;;;;;;;0.43;0.30;;;37.20;45.30;;;;;;5054288;28;20437;-79
2021/08/24 08:37:35;;;;;;;0.40;0.30;;;37.20;45.40;;;;;;5055453;28;20433;-80
2021/08/24 08:40:02;;;;;;;0.40;0.30;;;36.60;45.60;;;;;;5054453;28;20933;-81
2021/08/24 08:42:42;;;;;;;0.40;0.30;;;36.40;47.70;;;;;;5053603;28;20799;-84
2021/08/24 08:45:12;;;;;;;1.80;1.70;;;37.00;48.10;;;;;;5037152;28;20917;-82
2021/08/24 08:47:56;;;;;;;0.40;0.30;;;37.50;46.90;;;;;;5051849;28;20447;-81
2021/08/24 08:50:31;;;;;;;0.50;0.30;;;36.90;44.20;;;;;;5054239;28;20522;-78
2021/08/24 08:53:05;;;;;;;0.47;0.30;;;36.00;46.60;;;;;;5054468;28;20472;-81
2021/08/24 08:55:42;;;;;;;0.50;0.40;;;36.00;47.20;;;;;;5058065;28;20416;-82
2021/08/24 08:58:17;;;;;;;0.40;0.30;;;36.40;46.70;;;;;;5058118;28;20535;-82
2021/08/24 09:00:49;;;;;;;0.40;0.30;;;37.20;45.50;;;;;;5055231;28;20470;-82
2021/08/24 09:03:18;;;;;;;0.50;0.30;;;37.10;43.20;;;;;;5055523;28;20437;-82
2021/08/24 09:05:48;;;;;;;0.47;0.30;;;35.60;44.70;;;;;;5056255;28;20525;-81
2021/08/24 09:08:18;;;;;;;0.50;0.30;;;35.10;46.70;;;;;;5055908;28;20448;-82
2021/08/24 09:10:47;;;;;;;0.50;0.30;;;35.20;45.30;;;;;;5053322;28;20974;-81
2021/08/24 09:13:22;;;;;;;0.50;0.30;;;35.10;45.90;;;;;;5055924;28;20484;-81
2021/08/24 09:15:53;;;;;;;0.50;0.30;;;34.50;46.50;;;;;;5053214;28;20437;-80
2021/08/24 09:18:40;;;;;;;0.50;0.30;;;34.80;48.10;;;;;;5056929;28;20433;-82
2021/08/24 09:21:10;;;;;;;0.50;0.30;;;34.90;46.90;;;;;;5056556;28;20487;-82
2021/08/24 09:23:37;;;;;;;0.93;0.93;;;35.60;46.00;;;;;;5049859;28;20429;-82
2021/08/24 09:26:16;;;;;;;0.50;0.30;;;36.00;45.00;;;;;;5051511;28;20456;-79
2021/08/24 09:28:43;;;;;;;0.50;0.30;;;36.00;45.20;;;;;;5054426;28;20439;-81
2021/08/24 09:31:19;;;;;;;0.50;0.30;;;34.00;46.10;;;;;;5051524;28;20817;-77
2021/08/24 09:33:46;;;;;;;0.50;0.30;;;32.90;48.20;;;;;;5053619;28;20480;-81
2021/08/24 09:36:15;;;;;;;0.50;0.30;;;33.50;50.50;;;;;;5055011;28;20448;-82
2021/08/24 09:38:49;;;;;;;0.50;0.30;;;34.50;49.80;;;;;;5056463;28;20509;-82
2021/08/24 09:41:23;;;;;;;0.43;0.40;;;35.40;48.90;;;;;;5100451;23;21008;-82
2021/08/24 09:43:52;;;;;;;0.50;0.30;;;35.70;45.80;;;;;;5050448;28;20440;-82
2021/08/24 09:46:37;;;;;;;0.47;0.30;;;36.10;46.00;;;;;;5055629;28;20443;-84
2021/08/24 09:49:07;;;;;;;0.40;0.30;;;36.00;45.90;;;;;;5056619;28;20421;-84
2021/08/24 09:51:46;;;;;;;2.67;1.60;;;36.00;46.40;;;;;;5053587;28;20595;-84
2021/08/24 09:54:30;;;;;;;0.40;0.30;;;36.20;46.00;;;;;;5055052;28;20537;-84
2021/08/24 09:56:59;;;;;;;0.43;0.30;;;35.90;44.70;;;;;;5046314;28;20468;-83
2021/08/24 09:59:30;;;;;;;0.50;0.40;;;35.30;47.30;;;;;;5036210;28;20449;-83
2021/08/24 10:01:57;;;;;;;0.47;0.30;;;34.90;45.70;;;;;;5042830;28;20575;-79
2021/08/24 10:04:24;;;;;;;0.47;0.30;;;34.70;46.90;;;;;;5056275;28;20442;-83
2021/08/24 10:07:00;;;;;;;0.50;0.30;;;34.90;47.60;;;;;;5054341;28;20440;-83
2021/08/24 10:09:30;;;;;;;0.40;0.30;;;35.30;47.70;;;;;;5056080;28;20905;-83
2021/08/24 10:12:19;;;;;;;0.40;0.30;;;35.40;46.20;;;;;;5054627;28;20470;-79
2021/08/24 10:14:46;;;;;;;0.40;0.30;;;35.50;45.90;;;;;;5056064;28;20439;-82
2021/08/24 10:17:24;;;;;;;0.50;0.30;;;36.00;46.20;;;;;;5048636;28;20930;-83
2021/08/24 10:19:51;;;;;;;0.40;0.30;;;36.10;45.50;;;;;;5045878;28;20436;-82
2021/08/24 10:22:27;;;;;;;1.10;0.87;;;35.90;44.80;;;;;;5042990;28;20498;-83
2021/08/24 10:24:58;;;;;;;0.40;0.30;;;35.90;44.60;;;;;;5043439;28;20438;-84
2021/08/24 10:27:29;;;;;;;0.40;0.30;;;35.90;44.60;;;;;;5045605;28;20934;-83
2021/08/24 10:29:58;;;;;;;0.40;0.30;;;35.90;45.90;;;;;;5046731;28;20432;-84
2021/08/24 10:32:28;;;;;;;0.50;0.30;;;35.00;44.90;;;;;;5045016;28;20476;-83
2021/08/24 10:34:55;;;;;;;0.50;0.30;;;34.90;47.10;;;;;;5044092;28;20437;-83
2021/08/24 10:37:40;;;;;;;0.50;0.30;;;34.20;46.50;;;;;;5045676;28;20441;-83
2021/08/24 10:40:39;;;;;;;0.40;0.30;;;34.20;47.90;;;;;;5045411;28;20467;-79
2021/08/24 10:43:22;;;;;;;0.40;0.30;;;34.90;46.70;;;;;;5032763;28;20436;-83
2021/08/24 10:46:07;;;;;;;0.40;0.30;;;35.10;46.80;;;;;;5043968;28;20457;-83
2021/08/24 10:48:35;;;;;;;0.50;0.30;;;35.10;45.30;;;;;;5050707;28;20436;-82
2021/08/24 10:51:09;;;;;;;0.50;0.30;;;34.30;45.60;;;;;;5054536;28;20463;-84
2021/08/24 10:53:46;;;;;;;6.63;4.87;;;33.50;48.00;;;;;;5056137;28;20472;-84
2021/08/24 10:56:18;;;;;;;0.50;0.30;;;33.60;48.50;;;;;;5052816;28;20530;-83
2021/08/24 10:58:55;;;;;;;0.50;0.30;;;33.90;48.80;;;;;;5038449;28;20427;-83
2021/08/24 11:01:31;;;;;;;0.50;0.30;;;34.20;47.90;;;;;;5050324;28;20469;-84
2021/08/24 11:04:24;;;;;;;0.50;0.30;;;34.00;46.40;;;;;;5055035;28;20510;-79
2021/08/24 11:07:03;;;;;;;0.50;0.40;;;33.80;46.40;;;;;;5035916;28;20441;-84
2021/08/24 11:09:38;;;;;;;0.50;0.30;;;33.70;46.40;;;;;;5036426;28;20431;-84
2021/08/24 11:12:19;;;;;;;0.50;0.30;;;33.40;46.40;;;;;;5036475;28;20484;-84
2021/08/24 11:14:54;;;;;;;0.47;0.30;;;33.90;46.60;;;;;;5038057;28;20509;-85
2021/08/24 11:17:31;;;;;;;0.43;0.30;;;34.10;45.90;;;;;;5038046;28;20423;-84
2021/08/24 11:20:06;;;;;;;0.47;0.30;;;34.40;46.10;;;;;;5037326;28;20839;-84
2021/08/24 11:22:39;;;;;;;0.50;0.40;;;34.40;45.70;;;;;;5038413;28;20439;-84
2021/08/24 11:25:26;;;;;;;0.50;0.30;;;34.40;48.20;;;;;;5039674;28;20440;-84
2021/08/24 11:27:59;;;;;;;0.50;0.30;;;33.90;45.50;;;;;;5039107;28;20422;-83
2021/08/24 11:30:35;;;;;;;0.40;0.30;;;33.90;46.00;;;;;;5038629;28;20478;-80
2021/08/24 11:33:07;;;;;;;0.43;0.40;;;34.60;47.70;;;;;;5038313;28;20466;-83
2021/08/24 11:35:44;;;;;;;0.43;0.30;;;34.30;46.90;;;;;;5038782;28;20932;-84
2021/08/24 11:38:15;;;;;;;0.50;0.30;;;33.70;45.80;;;;;;5038425;28;20429;-84
2021/08/24 11:40:51;;;;;;;0.50;0.30;;;32.90;46.40;;;;;;5036598;28;20468;-83
2021/08/24 11:43:23;;;;;;;0.50;0.40;;;33.20;48.70;;;;;;5037304;28;20537;-83
2021/08/24 11:45:53;;;;;;;0.50;0.30;;;33.60;46.60;;;;;;5038519;28;20447;-82
2021/08/24 11:48:25;;;;;;;0.50;0.30;;;32.60;45.50;;;;;;5041135;28;20437;-84
2021/08/24 11:51:00;;;;;;;0.50;0.30;;;32.30;48.50;;;;;;5041619;28;20466;-85
2021/08/24 11:53:31;;;;;;;0.80;0.73;;;32.40;49.10;;;;;;5041867;28;20484;-84
2021/08/24 11:56:02;;;;;;;0.50;0.30;;;32.00;47.30;;;;;;5041660;28;20446;-84
2021/08/24 11:58:35;;;;;;;0.50;0.30;;;32.00;48.80;;;;;;5040937;28;20439;-84
2021/08/24 12:01:04;;;;;;;0.50;0.30;;;32.10;49.00;;;;;;5040836;28;20471;-84
2021/08/24 12:03:34;;;;;;;0.50;0.30;;;32.50;48.00;;;;;;5041553;28;20450;-84
2021/08/24 12:06:07;;;;;;;0.60;0.60;;;33.00;48.10;;;;;;5041930;28;21122;-84
2021/08/24 12:08:41;;;;;;;0.50;0.30;;;33.40;48.80;;;;;;5042066;28;20792;-83
2021/08/24 12:11:13;;;;;;;0.50;0.30;;;33.10;46.90;;;;;;5040105;28;20535;-84
2021/08/24 12:13:43;;;;;;;0.50;0.30;;;32.30;48.10;;;;;;5040932;28;20473;-84
2021/08/24 12:16:20;;;;;;;0.50;0.30;;;32.40;49.40;;;;;;5042510;28;20456;-83
2021/08/24 12:18:48;;;;;;;0.50;0.30;;;32.90;48.60;;;;;;5039890;28;20454;-83
2021/08/24 12:21:29;;;;;;;0.50;0.30;;;33.60;48.10;;;;;;5039966;28;20462;-83
2021/08/24 12:23:58;;;;;;;0.50;0.30;;;33.80;46.40;;;;;;5039368;28;20501;-84
2021/08/24 12:26:30;;;;;;;0.40;0.30;;;33.40;46.70;;;;;;5058017;28;20443;-83
2021/08/24 12:29:01;;;;;;;0.47;0.30;;;33.40;46.10;;;;;;5051980;28;20442;-83
2021/08/24 12:31:41;;;;;;;0.40;0.30;;;34.10;49.60;;;;;;5064029;28;20464;-84
2021/08/24 12:34:53;;;;;;;0.50;0.30;;;34.30;47.00;;;;;;5062917;28;20465;-84
2021/08/24 12:37:51;;;;;;;0.40;0.30;;;34.80;45.30;;;;;;5061104;28;20436;-84
2021/08/24 12:40:59;;;;;;;0.40;0.30;;;34.60;45.10;;;;;;5060052;28;20980;-82
2021/08/24 12:43:42;;;;;;;0.50;0.30;;;33.70;46.10;;;;;;5059903;28;20444;-84
2021/08/24 12:46:30;;;;;;;0.50;0.30;;;33.20;46.90;;;;;;5061199;28;20444;-84
2021/08/24 12:49:32;;;;;;;0.50;0.30;;;32.60;47.10;;;;;;5060385;28;20445;-84
2021/08/24 12:52:17;;;;;;;0.50;0.30;;;31.80;48.50;;;;;;5059743;28;20497;-83
2021/08/24 12:54:47;;;;;;;0.97;0.70;;;30.80;49.70;;;;;;5055978;28;20484;-84
2021/08/24 12:57:17;;;;;;;0.50;0.30;;;30.60;51.60;;;;;;5058992;28;20428;-84
2021/08/24 12:59:47;;;;;;;0.50;0.30;;;30.30;51.80;;;;;;5059963;28;20439;-84
2021/08/24 13:02:24;;;;;;;0.50;0.30;;;30.00;52.00;;;;;;5059760;28;20481;-83
2021/08/24 13:04:54;;;;;;;0.50;0.30;;;29.10;51.50;;;;;;5059384;28;20449;-84
2021/08/24 13:07:33;;;;;;;0.50;0.30;;;29.40;54.00;;;;;;5059693;28;20450;-83
2021/08/24 13:10:15;;;;;;;0.50;0.30;;;29.40;53.90;;;;;;5058757;28;20969;-83